createdAt,value
2017-11-24T00:00:53.949Z,66.58
2017-11-24T00:03:21.479Z,66.68
2017-11-24T00:05:48.995Z,66.76
2017-11-24T00:08:16.509Z,66.80
2017-11-24T00:10:44.114Z,66.68
2017-11-24T00:13:11.639Z,66.61
2017-11-24T00:15:39.130Z,66.57
2017-11-24T00:18:06.662Z,66.60
2017-11-24T00:20:34.154Z,67.70
2017-11-24T00:23:01.702Z,66.76
2017-11-24T00:25:29.432Z,66.39
2017-11-24T00:27:56.912Z,66.29
2017-11-24T00:30:24.382Z,66.45
2017-11-24T00:32:51.829Z,66.54
2017-11-24T00:35:19.366Z,66.76
2017-11-24T00:37:46.825Z,66.95
2017-11-24T00:40:14.409Z,67.03
2017-11-24T00:42:41.904Z,67.19
2017-11-24T00:45:09.379Z,67.29
2017-11-24T00:47:36.878Z,67.29
2017-11-24T00:50:04.374Z,67.50
2017-11-24T00:52:31.889Z,67.70
2017-11-24T00:54:59.364Z,67.73
2017-11-24T00:57:26.797Z,67.79
2017-11-24T00:59:54.667Z,67.81
2017-11-24T01:02:22.124Z,67.98
2017-11-24T01:04:49.629Z,68.01
2017-11-24T01:07:17.110Z,68.03
2017-11-24T01:09:44.548Z,68.00
2017-11-24T01:12:12.009Z,68.10
2017-11-24T01:14:39.662Z,68.24
2017-11-24T01:17:07.127Z,68.28
2017-11-24T01:19:34.568Z,68.20
2017-11-24T01:22:02.064Z,68.24
2017-11-24T01:24:29.576Z,68.17
2017-11-24T01:26:57.085Z,68.29
2017-11-24T01:29:24.637Z,68.45
2017-11-24T01:31:52.121Z,68.86
2017-11-24T01:34:19.597Z,69.00
2017-11-24T01:36:47.076Z,69.08
2017-11-24T01:39:14.537Z,69.22
2017-11-24T01:41:41.973Z,69.19
2017-11-24T01:44:09.465Z,69.44
2017-11-24T01:46:36.920Z,69.33
2017-11-24T01:49:04.368Z,69.31
2017-11-24T01:51:32.766Z,69.33
2017-11-24T01:54:00.270Z,69.19
2017-11-24T01:56:27.860Z,69.29
2017-11-24T01:58:56.473Z,69.26
2017-11-24T02:01:23.983Z,69.22
2017-11-24T02:03:51.420Z,69.09
2017-11-24T02:06:18.871Z,69.10
2017-11-24T02:08:46.325Z,69.21
2017-11-24T02:11:13.777Z,69.06
2017-11-24T02:13:41.335Z,69.06
2017-11-24T02:16:08.782Z,68.80
2017-11-24T02:18:36.237Z,68.86
2017-11-24T02:21:03.892Z,68.84
2017-11-24T02:23:32.334Z,68.83
2017-11-24T02:25:59.913Z,68.68
2017-11-24T02:28:27.506Z,68.60
2017-11-24T02:30:55.056Z,68.57
2017-11-24T02:33:22.728Z,68.44
2017-11-24T02:35:50.335Z,68.39
2017-11-24T02:38:17.899Z,68.19
2017-11-24T02:40:45.478Z,68.23
2017-11-24T02:46:05.585Z,68.03
2017-11-24T02:48:33.099Z,68.00
2017-11-24T02:51:00.610Z,67.99
2017-11-24T02:53:30.038Z,68.03
2017-11-24T02:55:57.502Z,67.98
2017-11-24T02:58:25.404Z,68.03
2017-11-24T03:00:52.995Z,68.04
2017-11-24T03:03:20.511Z,68.06
2017-11-24T03:05:47.970Z,67.86
2017-11-24T03:08:15.478Z,67.87
2017-11-24T03:10:42.962Z,67.73
2017-11-24T03:13:10.512Z,67.62
2017-11-24T03:15:38.646Z,67.62
2017-11-24T03:18:06.116Z,67.58
2017-11-24T03:20:33.578Z,67.65
2017-11-24T03:23:01.782Z,67.66
2017-11-24T03:25:29.376Z,67.51
2017-11-24T03:27:56.836Z,67.55
2017-11-24T03:30:24.274Z,67.56
2017-11-24T03:32:51.832Z,67.40
2017-11-24T03:35:19.672Z,67.39
2017-11-24T03:37:47.128Z,67.21
2017-11-24T03:40:14.678Z,67.11
2017-11-24T03:45:34.646Z,66.84
2017-11-24T03:48:02.164Z,66.71
2017-11-24T03:50:29.679Z,66.45
2017-11-24T03:52:57.263Z,66.32
2017-11-24T03:55:24.795Z,66.26
2017-11-24T03:57:52.256Z,66.46
2017-11-24T04:00:19.996Z,66.44
2017-11-24T04:02:47.532Z,66.39
2017-11-24T04:05:15.134Z,66.44
2017-11-24T04:07:42.621Z,66.64
2017-11-24T04:10:11.280Z,66.57
2017-11-24T04:12:38.794Z,66.70
2017-11-24T04:15:06.612Z,66.76
2017-11-24T04:17:34.121Z,66.84
2017-11-24T04:20:01.686Z,67.01
2017-11-24T04:22:29.136Z,67.04
2017-11-24T04:24:56.735Z,67.04
2017-11-24T04:27:24.305Z,67.09
2017-11-24T04:29:51.816Z,67.13
2017-11-24T04:32:19.318Z,67.09
2017-11-24T04:34:47.612Z,67.23
2017-11-24T04:37:15.166Z,67.14
2017-11-24T04:39:42.636Z,67.16
2017-11-24T04:42:10.161Z,67.09
2017-11-24T04:44:37.685Z,67.15
2017-11-24T04:47:05.190Z,67.15
2017-11-24T04:49:32.922Z,67.17
2017-11-24T04:52:00.502Z,67.22
2017-11-24T04:54:27.986Z,67.28
2017-11-24T04:56:55.534Z,67.43
2017-11-24T04:59:23.061Z,67.51
2017-11-24T05:01:55.792Z,67.49
2017-11-24T05:04:23.395Z,67.58
2017-11-24T05:06:50.908Z,67.68
2017-11-24T05:09:18.432Z,67.80
2017-11-24T05:11:45.965Z,67.80
2017-11-24T05:14:13.426Z,67.75
2017-11-24T05:16:40.933Z,67.78
2017-11-24T05:19:08.849Z,67.89
2017-11-24T05:21:36.442Z,67.91
2017-11-24T05:24:03.924Z,68.02
2017-11-24T05:26:31.399Z,67.91
2017-11-24T05:28:58.915Z,67.85
2017-11-24T05:31:26.426Z,67.73
2017-11-24T05:33:53.928Z,67.69
2017-11-24T05:36:21.440Z,67.60
2017-11-24T05:38:48.985Z,67.37
2017-11-24T05:41:16.591Z,67.32
2017-11-24T05:44:07.758Z,66.96
2017-11-24T05:46:35.255Z,66.87
2017-11-24T05:49:02.729Z,66.83
2017-11-24T05:51:30.305Z,66.69
2017-11-24T05:54:12.013Z,66.60
2017-11-24T05:56:39.491Z,66.28
2017-11-24T05:59:07.107Z,66.20
2017-11-24T06:01:34.841Z,66.12
2017-11-24T06:04:02.329Z,65.94
2017-11-24T06:06:29.884Z,65.85
2017-11-24T06:08:57.382Z,65.89
2017-11-24T06:11:24.868Z,65.88
2017-11-24T06:13:57.341Z,65.88
2017-11-24T06:16:24.889Z,65.86
2017-11-24T06:18:52.351Z,65.77
2017-11-24T06:21:19.920Z,65.77
2017-11-24T06:23:47.410Z,65.61
2017-11-24T06:26:14.968Z,65.55
2017-11-24T06:28:42.466Z,65.51
2017-11-24T06:31:09.899Z,65.51
2017-11-24T06:33:37.524Z,65.26
2017-11-24T06:36:05.012Z,65.23
2017-11-24T06:38:32.464Z,64.99
2017-11-24T06:40:59.973Z,64.83
2017-11-24T06:43:27.574Z,64.66
2017-11-24T06:45:55.076Z,64.67
2017-11-24T06:48:22.643Z,64.73
2017-11-24T06:50:50.149Z,64.62
2017-11-24T06:53:17.694Z,64.56
2017-11-24T06:55:45.171Z,64.32
2017-11-24T06:58:12.660Z,64.26
2017-11-24T07:00:40.627Z,64.23
2017-11-24T07:03:08.168Z,64.14
2017-11-24T07:05:35.821Z,64.07
2017-11-24T07:08:03.354Z,63.90
2017-11-24T07:10:31.565Z,63.81
2017-11-24T07:13:08.926Z,63.72
2017-11-24T07:15:37.429Z,63.66
2017-11-24T07:18:04.909Z,63.71
2017-11-24T07:20:32.513Z,63.80
2017-11-24T07:23:00.440Z,63.75
2017-11-24T07:25:28.245Z,63.71
2017-11-24T07:27:56.753Z,63.80
2017-11-24T07:30:24.494Z,63.84
2017-11-24T07:32:52.086Z,63.58
2017-11-24T07:35:19.664Z,63.74
2017-11-24T07:37:47.316Z,63.43
2017-11-24T07:40:14.900Z,63.35
2017-11-24T07:42:42.626Z,63.33
2017-11-24T07:45:10.212Z,63.32
2017-11-24T07:47:37.803Z,63.07
2017-11-24T07:50:05.735Z,62.78
2017-11-24T07:52:33.522Z,62.80
2017-11-24T07:55:01.113Z,62.63
2017-11-24T07:57:28.563Z,62.67
2017-11-24T07:59:56.064Z,62.56
2017-11-24T08:02:24.593Z,62.58
2017-11-24T08:04:52.098Z,62.62
2017-11-24T08:07:19.775Z,62.67
2017-11-24T08:09:47.406Z,62.77
2017-11-24T08:12:14.975Z,62.70
2017-11-24T08:14:42.551Z,62.71
2017-11-24T08:17:10.292Z,62.71
2017-11-24T08:19:38.091Z,62.57
2017-11-24T08:22:05.640Z,62.55
2017-11-24T08:24:33.151Z,62.62
2017-11-24T08:27:00.841Z,62.51
2017-11-24T08:29:28.343Z,62.50
2017-11-24T08:34:48.984Z,62.51
2017-11-24T08:37:16.900Z,62.21
2017-11-24T08:39:44.547Z,62.04
2017-11-24T08:42:14.611Z,61.71
2017-11-24T08:44:42.183Z,61.87
2017-11-24T08:47:15.396Z,61.78
2017-11-24T08:49:46.937Z,61.68
2017-11-24T08:52:14.507Z,61.69
2017-11-24T08:54:42.225Z,61.81
2017-11-24T08:57:09.723Z,62.07
2017-11-24T08:59:37.297Z,62.31
2017-11-24T09:02:10.120Z,62.31
2017-11-24T09:04:37.626Z,62.53
2017-11-24T09:07:05.185Z,62.62
2017-11-24T09:09:32.691Z,62.37
2017-11-24T09:12:00.409Z,62.48
2017-11-24T09:14:27.992Z,62.49
2017-11-24T09:16:55.455Z,62.44
2017-11-24T09:19:22.927Z,62.35
2017-11-24T09:21:55.494Z,62.17
2017-11-24T09:24:22.946Z,62.10
2017-11-24T09:26:51.122Z,61.99
2017-11-24T09:29:18.580Z,61.67
2017-11-24T09:31:46.246Z,61.38
2017-11-24T09:34:13.698Z,61.18
2017-11-24T09:36:41.273Z,61.21
2017-11-24T09:39:08.728Z,61.29
2017-11-24T09:41:36.277Z,61.27
2017-11-24T09:44:08.657Z,61.12
2017-11-24T09:46:36.120Z,61.19
2017-11-24T09:49:03.685Z,61.20
2017-11-24T09:51:31.465Z,61.25
2017-11-24T09:53:58.947Z,61.34
2017-11-24T09:56:26.554Z,61.41
2017-11-24T09:58:54.013Z,61.55
2017-11-24T10:01:21.454Z,61.51
2017-11-24T10:03:48.987Z,61.55
2017-11-24T10:06:16.503Z,61.70
2017-11-24T10:08:44.059Z,61.69
2017-11-24T10:11:11.640Z,61.72
2017-11-24T10:13:39.164Z,61.61
2017-11-24T10:16:06.669Z,61.50
2017-11-24T10:18:34.153Z,61.45
2017-11-24T10:21:07.324Z,61.38
2017-11-24T10:23:34.831Z,61.50
2017-11-24T10:26:02.372Z,61.59
2017-11-24T10:28:30.410Z,62.00
2017-11-24T10:30:59.602Z,61.50
2017-11-24T10:33:27.163Z,61.08
2017-11-24T10:35:54.720Z,60.74
2017-11-24T10:38:22.281Z,60.73
2017-11-24T10:40:49.999Z,60.65
2017-11-24T10:43:17.500Z,60.66
2017-11-24T10:45:45.108Z,60.68
2017-11-24T10:48:13.470Z,60.53
2017-11-24T10:50:42.057Z,60.72
2017-11-24T10:53:14.554Z,60.29
2017-11-24T10:55:42.143Z,60.47
2017-11-24T10:58:10.448Z,60.47
2017-11-24T11:00:39.859Z,60.62
2017-11-24T11:03:07.345Z,60.24
2017-11-24T11:05:36.619Z,61.99
2017-11-24T11:08:04.149Z,61.47
2017-11-24T11:10:31.895Z,61.87
2017-11-24T11:12:59.376Z,62.01
2017-11-24T11:15:28.692Z,62.29
2017-11-24T11:17:56.293Z,62.55
2017-11-24T11:20:24.181Z,63.17
2017-11-24T11:22:51.961Z,63.10
2017-11-24T11:25:19.540Z,63.65
2017-11-24T11:27:47.086Z,63.52
2017-11-24T11:30:14.562Z,63.15
2017-11-24T11:32:42.252Z,63.11
2017-11-24T11:35:10.146Z,62.70
2017-11-24T11:37:38.073Z,62.47
2017-11-24T11:40:05.667Z,62.39
2017-11-24T11:42:33.975Z,62.87
2017-11-24T11:45:01.472Z,63.53
2017-11-24T11:47:28.970Z,63.71
2017-11-24T11:49:57.469Z,63.60
2017-11-24T11:52:25.068Z,63.42
2017-11-24T11:54:55.788Z,63.50
2017-11-24T11:57:23.570Z,62.83
2017-11-24T11:59:51.286Z,62.34
2017-11-24T12:02:18.859Z,62.03
2017-11-24T12:04:47.402Z,62.22
2017-11-24T12:07:15.016Z,61.99
2017-11-24T12:09:42.572Z,62.52
2017-11-24T12:12:10.151Z,62.60
2017-11-24T12:14:37.857Z,62.59
2017-11-24T12:17:05.400Z,62.75
2017-11-24T12:19:32.858Z,63.06
2017-11-24T12:22:00.486Z,62.44
2017-11-24T12:24:28.005Z,62.61
2017-11-24T12:26:55.457Z,63.21
2017-11-24T12:29:22.978Z,62.42
2017-11-24T12:31:51.208Z,62.91
2017-11-24T12:34:18.724Z,63.08
2017-11-24T12:36:46.215Z,62.90
2017-11-24T12:39:13.849Z,63.42
2017-11-24T12:41:41.442Z,63.27
2017-11-24T12:44:08.912Z,63.46
2017-11-24T12:46:36.459Z,63.21
2017-11-24T12:49:04.142Z,62.90
2017-11-24T12:51:31.683Z,63.54
2017-11-24T12:53:59.304Z,63.13
2017-11-24T12:56:26.807Z,63.20
2017-11-24T12:58:54.298Z,61.91
2017-11-24T13:01:21.864Z,61.94
2017-11-24T13:03:49.389Z,61.67
2017-11-24T13:06:17.021Z,61.85
2017-11-24T13:08:44.597Z,61.85
2017-11-24T13:11:12.143Z,62.17
2017-11-24T13:13:49.525Z,62.30
2017-11-24T13:16:17.826Z,63.00
2017-11-24T13:18:45.368Z,62.42
2017-11-24T13:21:12.935Z,62.81
2017-11-24T13:23:54.647Z,62.97
2017-11-24T13:26:22.271Z,62.89
2017-11-24T13:28:49.883Z,62.47
2017-11-24T13:31:17.423Z,62.51
2017-11-24T13:33:45.057Z,62.40
2017-11-24T13:36:12.571Z,62.03
2017-11-24T13:38:40.061Z,62.23
2017-11-24T13:41:07.571Z,62.85
2017-11-24T13:43:35.097Z,63.34
2017-11-24T13:46:02.552Z,63.30
2017-11-24T13:48:30.015Z,63.51
2017-11-24T13:50:57.483Z,63.22
2017-11-24T13:53:24.993Z,63.95
2017-11-24T13:55:53.799Z,64.04
2017-11-24T13:58:21.278Z,63.70
2017-11-24T14:00:48.822Z,63.50
2017-11-24T14:03:16.476Z,63.44
2017-11-24T14:05:43.967Z,63.53
2017-11-24T14:08:11.528Z,63.55
2017-11-24T14:10:41.954Z,63.70
2017-11-24T14:13:28.240Z,63.45
2017-11-24T14:15:55.800Z,64.27
2017-11-24T14:18:23.367Z,63.80
2017-11-24T14:20:51.317Z,63.92
2017-11-24T14:23:20.615Z,63.57
2017-11-24T14:25:49.927Z,63.63
2017-11-24T14:28:17.694Z,63.62
2017-11-24T14:30:45.769Z,63.51
2017-11-24T14:33:13.499Z,63.99
2017-11-24T14:35:41.065Z,64.29
2017-11-24T14:38:08.658Z,64.21
2017-11-24T14:40:36.127Z,64.37
2017-11-24T14:43:04.639Z,64.48
2017-11-24T14:45:32.258Z,64.77
2017-11-24T14:47:59.878Z,64.67
2017-11-24T14:50:27.776Z,64.76
2017-11-24T14:52:55.266Z,64.52
2017-11-24T14:55:22.751Z,64.62
2017-11-24T14:57:50.369Z,64.53
2017-11-24T15:00:17.926Z,64.50
2017-11-24T15:02:55.198Z,64.67
2017-11-24T15:05:22.808Z,64.59
2017-11-24T15:07:52.062Z,64.63
2017-11-24T15:10:21.571Z,64.85
2017-11-24T15:12:50.641Z,64.83
2017-11-24T15:15:19.181Z,65.36
2017-11-24T15:17:47.010Z,65.10
2017-11-24T15:20:15.381Z,65.47
2017-11-24T15:22:42.983Z,67.49
2017-11-24T15:25:11.634Z,69.57
2017-11-24T15:27:39.370Z,70.47
2017-11-24T15:30:06.889Z,71.08
2017-11-24T15:32:44.146Z,71.23
2017-11-24T15:35:12.393Z,71.58
2017-11-24T15:37:40.395Z,72.44
2017-11-24T15:40:07.968Z,73.03
2017-11-24T15:42:35.588Z,73.43
2017-11-24T15:45:04.342Z,73.95
2017-11-24T15:47:32.390Z,74.52
2017-11-24T15:50:00.358Z,75.09
2017-11-24T15:52:28.245Z,75.55
2017-11-24T15:54:56.565Z,76.06
2017-11-24T15:57:24.059Z,76.47
2017-11-24T15:59:51.567Z,76.99
2017-11-24T16:02:19.444Z,76.96
2017-11-24T16:04:47.269Z,77.68
2017-11-24T16:07:14.859Z,77.95
2017-11-24T16:09:42.390Z,77.62
2017-11-24T16:12:10.193Z,78.27
2017-11-24T16:14:38.010Z,78.84
2017-11-24T16:17:05.706Z,79.18
2017-11-24T16:19:34.289Z,79.50
2017-11-24T16:22:01.958Z,79.60
2017-11-24T16:24:29.718Z,80.23
2017-11-24T16:26:57.539Z,80.05
2017-11-24T16:29:25.289Z,80.03
2017-11-24T16:31:52.879Z,80.23
2017-11-24T16:34:20.501Z,79.96
2017-11-24T16:36:49.099Z,79.02
2017-11-24T16:39:16.700Z,79.11
2017-11-24T16:41:44.301Z,79.27
2017-11-24T16:44:12.046Z,79.60
2017-11-24T16:46:40.020Z,80.12
2017-11-24T16:49:07.505Z,80.14
2017-11-24T16:51:35.096Z,79.78
2017-11-24T16:54:17.079Z,79.08
2017-11-24T16:56:45.114Z,78.72
2017-11-24T16:59:13.594Z,79.54
2017-11-24T17:01:41.247Z,79.15
2017-11-24T17:04:09.004Z,78.82
2017-11-24T17:06:36.591Z,79.33
2017-11-24T17:09:04.278Z,79.54
2017-11-24T17:11:31.992Z,79.30
2017-11-24T17:13:59.752Z,79.65
2017-11-24T17:16:27.384Z,79.05
2017-11-24T17:18:54.932Z,78.95
2017-11-24T17:21:22.536Z,78.53
2017-11-24T17:23:50.180Z,79.34
2017-11-24T17:26:17.825Z,79.35
2017-11-24T17:28:45.427Z,79.17
2017-11-24T17:31:20.242Z,79.41
2017-11-24T17:34:07.252Z,79.74
2017-11-24T17:36:35.057Z,79.89
2017-11-24T17:39:02.864Z,79.88
2017-11-24T17:41:31.342Z,80.09
2017-11-24T17:43:59.368Z,80.37
2017-11-24T17:46:27.025Z,80.38
2017-11-24T17:48:54.675Z,80.36
2017-11-24T17:51:22.339Z,80.22
2017-11-24T17:53:49.961Z,79.92
2017-11-24T17:56:17.615Z,80.28
2017-11-24T17:58:46.896Z,80.05
2017-11-24T18:01:14.415Z,80.28
2017-11-24T18:04:01.652Z,80.35
2017-11-24T18:06:29.171Z,80.44
2017-11-24T18:08:56.680Z,80.26
2017-11-24T18:11:24.215Z,80.47
2017-11-24T18:13:51.766Z,80.13
2017-11-24T18:16:19.242Z,80.45
2017-11-24T18:18:47.303Z,80.29
2017-11-24T18:21:14.916Z,80.11
2017-11-24T18:23:47.588Z,80.79
2017-11-24T18:26:15.171Z,80.91
2017-11-24T18:28:42.718Z,80.12
2017-11-24T18:31:10.264Z,80.08
2017-11-24T18:33:37.806Z,80.03
2017-11-24T18:36:05.658Z,80.21
2017-11-24T18:38:33.180Z,80.01
2017-11-24T18:41:00.778Z,80.06
2017-11-24T18:43:28.353Z,79.94
2017-11-24T18:45:56.016Z,79.62
2017-11-24T18:48:23.737Z,79.87
2017-11-24T18:50:51.308Z,79.83
2017-11-24T18:53:18.783Z,80.15
2017-11-24T18:55:46.323Z,80.21
2017-11-24T18:58:14.200Z,80.16
2017-11-24T19:00:41.958Z,80.20
2017-11-24T19:03:23.879Z,79.99
2017-11-24T19:05:51.661Z,79.69
2017-11-24T19:08:19.779Z,79.59
2017-11-24T19:10:47.243Z,79.62
2017-11-24T19:13:34.806Z,79.37
2017-11-24T19:16:02.401Z,79.74
2017-11-24T19:18:29.957Z,80.05
2017-11-24T19:20:57.536Z,79.92
2017-11-24T19:23:25.114Z,80.42
2017-11-24T19:25:52.666Z,79.96
2017-11-24T19:28:20.406Z,79.69
2017-11-24T19:30:48.014Z,79.33
2017-11-24T19:33:15.575Z,79.83
2017-11-24T19:35:43.128Z,80.31
2017-11-24T19:38:10.668Z,80.02
2017-11-24T19:40:38.347Z,80.17
2017-11-24T19:43:05.941Z,80.00
2017-11-24T19:45:33.601Z,80.39
2017-11-24T19:48:01.120Z,80.20
2017-11-24T19:50:28.885Z,80.46
2017-11-24T19:52:56.525Z,80.41
2017-11-24T19:55:24.067Z,80.21
2017-11-24T19:57:51.745Z,80.71
2017-11-24T20:00:19.214Z,80.29
2017-11-24T20:02:51.767Z,80.26
2017-11-24T20:05:19.583Z,80.00
2017-11-24T20:07:47.183Z,80.27
2017-11-24T20:10:14.713Z,80.42
2017-11-24T20:12:42.274Z,80.59
2017-11-24T20:15:10.132Z,80.60
2017-11-24T20:17:37.691Z,80.68
2017-11-24T20:20:05.310Z,80.73
2017-11-24T20:22:32.829Z,79.53
2017-11-24T20:25:00.635Z,79.51
2017-11-24T20:27:28.290Z,79.37
2017-11-24T20:29:55.896Z,79.39
2017-11-24T20:32:37.924Z,79.29
2017-11-24T20:35:05.532Z,79.44
2017-11-24T20:37:33.091Z,80.06
2017-11-24T20:40:00.657Z,80.03
2017-11-24T20:42:29.011Z,79.29
2017-11-24T20:44:56.570Z,78.92
2017-11-24T20:47:24.244Z,79.33
2017-11-24T20:49:51.880Z,79.64
2017-11-24T20:52:21.901Z,80.07
2017-11-24T20:54:49.708Z,80.02
2017-11-24T20:57:17.524Z,80.36
2017-11-24T20:59:45.390Z,80.40
2017-11-24T21:02:12.965Z,80.56
2017-11-24T21:04:40.460Z,80.24
2017-11-24T21:07:08.206Z,80.77
2017-11-24T21:09:35.810Z,80.88
2017-11-24T21:12:03.377Z,81.18
2017-11-24T21:14:31.184Z,81.54
2017-11-24T21:16:58.736Z,81.23
2017-11-24T21:19:26.542Z,81.04
2017-11-24T21:21:54.003Z,81.09
2017-11-24T21:24:22.200Z,80.76
2017-11-24T21:26:49.812Z,80.91
2017-11-24T21:29:17.340Z,81.22
2017-11-24T21:31:44.998Z,81.28
2017-11-24T21:34:27.033Z,81.16
2017-11-24T21:36:56.190Z,81.93
2017-11-24T21:39:23.873Z,82.38
2017-11-24T21:41:51.470Z,82.57
2017-11-24T21:44:24.029Z,82.56
2017-11-24T21:46:51.570Z,82.39
2017-11-24T21:49:19.153Z,82.39
2017-11-24T21:51:46.664Z,82.06
2017-11-24T21:54:14.284Z,81.84
2017-11-24T21:56:42.195Z,81.81
2017-11-24T21:59:10.025Z,81.51
2017-11-24T22:01:37.669Z,81.48
2017-11-24T22:04:05.968Z,81.63
2017-11-24T22:06:35.035Z,81.60
2017-11-24T22:11:55.051Z,81.85
2017-11-24T22:14:28.386Z,81.88
2017-11-24T22:16:56.193Z,81.85
2017-11-24T22:19:24.907Z,81.48
2017-11-24T22:21:54.280Z,81.70
2017-11-24T22:24:45.788Z,82.20
2017-11-24T22:27:13.523Z,81.62
2017-11-24T22:29:41.441Z,81.62
2017-11-24T22:32:09.309Z,82.35
2017-11-24T22:34:36.823Z,82.03
2017-11-24T22:37:04.403Z,82.05
2017-11-24T22:39:32.135Z,81.91
2017-11-24T22:42:03.199Z,82.08
2017-11-24T22:44:30.854Z,82.39
2017-11-24T22:46:58.989Z,82.06
2017-11-24T22:49:26.912Z,82.03
2017-11-24T22:51:54.707Z,82.22
2017-11-24T22:54:22.392Z,82.07
2017-11-24T22:56:50.337Z,81.78
2017-11-24T22:59:17.885Z,81.98
2017-11-24T23:01:45.393Z,82.01
2017-11-24T23:04:18.124Z,82.40
2017-11-24T23:06:46.193Z,82.14
2017-11-24T23:09:13.826Z,82.22
2017-11-24T23:11:41.479Z,82.18
2017-11-24T23:14:09.376Z,81.98
2017-11-24T23:16:36.953Z,82.11
2017-11-24T23:19:04.532Z,81.69
2017-11-24T23:21:32.179Z,81.62
2017-11-24T23:23:59.812Z,81.77
2017-11-24T23:26:27.549Z,81.33
2017-11-24T23:28:55.402Z,81.41
2017-11-24T23:31:22.988Z,81.68
2017-11-24T23:33:51.029Z,81.13
2017-11-24T23:36:18.589Z,80.82
2017-11-24T23:38:46.220Z,80.96
2017-11-24T23:41:13.933Z,80.85
2017-11-24T23:43:41.711Z,80.83
2017-11-24T23:46:09.278Z,81.38
2017-11-24T23:48:36.854Z,81.54
2017-11-24T23:51:04.400Z,81.50
2017-11-24T23:53:32.194Z,81.24
2017-11-24T23:55:59.871Z,81.64
2017-11-24T23:58:27.446Z,81.46
